sensor_id;sensor_type;location;lat;lon;timestamp;P1;durP1;ratioP1;P2;durP2;ratioP2
29730;SDS011;16639;51.488;0.152;2024-03-25T00:00:15;20.20;;;7.93;;
29730;SDS011;16639;51.488;0.152;2024-03-25T00:02:42;19.88;;;7.72;;
29730;SDS011;16639;51.488;0.152;2024-03-25T00:05:08;20.02;;;7.22;;
29730;SDS011;16639;51.488;0.152;2024-03-25T00:07:35;14.95;;;6.93;;
29730;SDS011;16639;51.488;0.152;2024-03-25T00:10:03;17.23;;;7.55;;
29730;SDS011;16639;51.488;0.152;2024-03-25T00:12:32;21.63;;;8.40;;
29730;SDS011;16639;51.488;0.152;2024-03-25T00:14:58;17.42;;;8.82;;
29730;SDS011;16639;51.488;0.152;2024-03-25T00:17:24;24.75;;;8.18;;
29730;SDS011;16639;51.488;0.152;2024-03-25T00:19:51;20.73;;;8.55;;
29730;SDS011;16639;51.488;0.152;2024-03-25T00:22:18;22.50;;;8.02;;
29730;SDS011;16639;51.488;0.152;2024-03-25T00:24:48;14.60;;;7.85;;
29730;SDS011;16639;51.488;0.152;2024-03-25T00:27:15;18.60;;;7.28;;
29730;SDS011;16639;51.488;0.152;2024-03-25T00:29:41;19.52;;;7.50;;
29730;SDS011;16639;51.488;0.152;2024-03-25T00:32:07;16.45;;;7.55;;
29730;SDS011;16639;51.488;0.152;2024-03-25T00:34:34;18.67;;;7.15;;
29730;SDS011;16639;51.488;0.152;2024-03-25T00:37:00;21.48;;;8.23;;
29730;SDS011;16639;51.488;0.152;2024-03-25T00:39:27;13.07;;;6.82;;
29730;SDS011;16639;51.488;0.152;2024-03-25T00:41:53;18.38;;;8.32;;
29730;SDS011;16639;51.488;0.152;2024-03-25T00:44:20;16.23;;;7.25;;
29730;SDS011;16639;51.488;0.152;2024-03-25T00:46:46;15.52;;;6.88;;
29730;SDS011;16639;51.488;0.152;2024-03-25T00:49:12;13.95;;;6.70;;
29730;SDS011;16639;51.488;0.152;2024-03-25T00:51:39;17.70;;;6.88;;
29730;SDS011;16639;51.488;0.152;2024-03-25T00:54:06;15.13;;;6.40;;
29730;SDS011;16639;51.488;0.152;2024-03-25T00:56:33;15.32;;;6.72;;
29730;SDS011;16639;51.488;0.152;2024-03-25T00:58:59;13.95;;;6.78;;
29730;SDS011;16639;51.488;0.152;2024-03-25T01:01:28;15.27;;;6.93;;
29730;SDS011;16639;51.488;0.152;2024-03-25T01:03:55;21.83;;;6.60;;
29730;SDS011;16639;51.488;0.152;2024-03-25T01:06:21;19.92;;;7.20;;
29730;SDS011;16639;51.488;0.152;2024-03-25T01:08:48;12.45;;;6.60;;
29730;SDS011;16639;51.488;0.152;2024-03-25T01:11:15;14.43;;;7.13;;
29730;SDS011;16639;51.488;0.152;2024-03-25T01:13:41;18.30;;;7.93;;
29730;SDS011;16639;51.488;0.152;2024-03-25T01:16:08;18.63;;;6.28;;
29730;SDS011;16639;51.488;0.152;2024-03-25T01:18:34;15.02;;;7.70;;
29730;SDS011;16639;51.488;0.152;2024-03-25T01:21:01;15.23;;;6.72;;
29730;SDS011;16639;51.488;0.152;2024-03-25T01:23:27;19.92;;;7.82;;
29730;SDS011;16639;51.488;0.152;2024-03-25T01:25:53;17.52;;;6.47;;
29730;SDS011;16639;51.488;0.152;2024-03-25T01:28:20;13.80;;;6.60;;
29730;SDS011;16639;51.488;0.152;2024-03-25T01:30:46;17.23;;;5.82;;
29730;SDS011;16639;51.488;0.152;2024-03-25T01:33:12;19.98;;;7.20;;
29730;SDS011;16639;51.488;0.152;2024-03-25T01:35:39;15.65;;;6.88;;
29730;SDS011;16639;51.488;0.152;2024-03-25T01:38:06;12.70;;;6.38;;
29730;SDS011;16639;51.488;0.152;2024-03-25T01:40:32;16.73;;;6.20;;
29730;SDS011;16639;51.488;0.152;2024-03-25T01:43:00;16.98;;;6.78;;
29730;SDS011;16639;51.488;0.152;2024-03-25T01:45:32;15.20;;;7.72;;
29730;SDS011;16639;51.488;0.152;2024-03-25T01:48:04;18.95;;;7.78;;
29730;SDS011;16639;51.488;0.152;2024-03-25T01:50:36;18.23;;;7.68;;
29730;SDS011;16639;51.488;0.152;2024-03-25T01:53:06;18.75;;;6.22;;
29730;SDS011;16639;51.488;0.152;2024-03-25T01:55:34;14.10;;;7.30;;
29730;SDS011;16639;51.488;0.152;2024-03-25T01:58:01;17.75;;;6.50;;
29730;SDS011;16639;51.488;0.152;2024-03-25T02:00:30;13.85;;;6.22;;
29730;SDS011;16639;51.488;0.152;2024-03-25T02:02:58;16.13;;;7.47;;
29730;SDS011;16639;51.488;0.152;2024-03-25T02:05:24;12.95;;;6.53;;
29730;SDS011;16639;51.488;0.152;2024-03-25T02:07:51;12.90;;;7.20;;
29730;SDS011;16639;51.488;0.152;2024-03-25T02:10:18;14.20;;;6.28;;
29730;SDS011;16639;51.488;0.152;2024-03-25T02:12:46;11.68;;;7.10;;
29730;SDS011;16639;51.488;0.152;2024-03-25T02:15:13;14.95;;;6.25;;
29730;SDS011;16639;51.488;0.152;2024-03-25T02:17:39;10.75;;;5.10;;
29730;SDS011;16639;51.488;0.152;2024-03-25T02:20:06;18.55;;;7.00;;
29730;SDS011;16639;51.488;0.152;2024-03-25T02:22:37;14.85;;;6.00;;
29730;SDS011;16639;51.488;0.152;2024-03-25T02:25:05;16.13;;;7.00;;
29730;SDS011;16639;51.488;0.152;2024-03-25T02:27:36;19.73;;;8.18;;
29730;SDS011;16639;51.488;0.152;2024-03-25T02:30:06;21.45;;;6.22;;
29730;SDS011;16639;51.488;0.152;2024-03-25T02:32:40;15.77;;;5.28;;
29730;SDS011;16639;51.488;0.152;2024-03-25T02:35:07;15.98;;;7.00;;
29730;SDS011;16639;51.488;0.152;2024-03-25T02:37:39;14.05;;;7.25;;
29730;SDS011;16639;51.488;0.152;2024-03-25T02:40:07;12.13;;;6.07;;
29730;SDS011;16639;51.488;0.152;2024-03-25T02:42:35;15.02;;;7.00;;
29730;SDS011;16639;51.488;0.152;2024-03-25T02:45:02;14.43;;;6.53;;
29730;SDS011;16639;51.488;0.152;2024-03-25T02:47:30;14.35;;;6.28;;
29730;SDS011;16639;51.488;0.152;2024-03-25T02:49:57;10.07;;;5.93;;
29730;SDS011;16639;51.488;0.152;2024-03-25T02:52:24;14.65;;;5.90;;
29730;SDS011;16639;51.488;0.152;2024-03-25T02:54:50;16.50;;;5.82;;
29730;SDS011;16639;51.488;0.152;2024-03-25T02:57:17;14.73;;;5.70;;
29730;SDS011;16639;51.488;0.152;2024-03-25T02:59:43;12.68;;;5.68;;
29730;SDS011;16639;51.488;0.152;2024-03-25T03:02:09;13.20;;;6.32;;
29730;SDS011;16639;51.488;0.152;2024-03-25T03:04:35;20.27;;;6.45;;
29730;SDS011;16639;51.488;0.152;2024-03-25T03:07:02;15.38;;;5.50;;
29730;SDS011;16639;51.488;0.152;2024-03-25T03:09:28;11.88;;;5.97;;
29730;SDS011;16639;51.488;0.152;2024-03-25T03:11:54;14.60;;;5.65;;
29730;SDS011;16639;51.488;0.152;2024-03-25T03:14:21;10.55;;;6.05;;
29730;SDS011;16639;51.488;0.152;2024-03-25T03:16:47;17.10;;;6.13;;
29730;SDS011;16639;51.488;0.152;2024-03-25T03:19:15;18.48;;;6.15;;
29730;SDS011;16639;51.488;0.152;2024-03-25T03:21:41;12.38;;;5.82;;
29730;SDS011;16639;51.488;0.152;2024-03-25T03:24:07;14.82;;;6.60;;
29730;SDS011;16639;51.488;0.152;2024-03-25T03:26:33;14.63;;;6.35;;
29730;SDS011;16639;51.488;0.152;2024-03-25T03:29:00;12.90;;;5.40;;
29730;SDS011;16639;51.488;0.152;2024-03-25T03:31:26;17.98;;;5.82;;
29730;SDS011;16639;51.488;0.152;2024-03-25T03:33:52;17.00;;;6.32;;
29730;SDS011;16639;51.488;0.152;2024-03-25T03:36:20;13.65;;;5.25;;
29730;SDS011;16639;51.488;0.152;2024-03-25T03:38:49;12.07;;;6.03;;
29730;SDS011;16639;51.488;0.152;2024-03-25T03:41:16;19.42;;;7.53;;
29730;SDS011;16639;51.488;0.152;2024-03-25T03:43:43;13.63;;;6.35;;
29730;SDS011;16639;51.488;0.152;2024-03-25T03:46:09;11.02;;;5.72;;
29730;SDS011;16639;51.488;0.152;2024-03-25T03:48:36;12.02;;;5.82;;
29730;SDS011;16639;51.488;0.152;2024-03-25T03:51:07;10.60;;;4.97;;
29730;SDS011;16639;51.488;0.152;2024-03-25T03:53:34;11.98;;;5.20;;
29730;SDS011;16639;51.488;0.152;2024-03-25T03:56:04;10.95;;;5.20;;
29730;SDS011;16639;51.488;0.152;2024-03-25T03:58:33;16.13;;;4.60;;
29730;SDS011;16639;51.488;0.152;2024-03-25T04:01:00;15.90;;;4.78;;
29730;SDS011;16639;51.488;0.152;2024-03-25T04:03:26;14.52;;;4.97;;
29730;SDS011;16639;51.488;0.152;2024-03-25T04:05:52;11.73;;;4.55;;
29730;SDS011;16639;51.488;0.152;2024-03-25T04:08:19;17.08;;;5.72;;
29730;SDS011;16639;51.488;0.152;2024-03-25T04:10:45;13.32;;;5.15;;
29730;SDS011;16639;51.488;0.152;2024-03-25T04:13:12;14.18;;;5.57;;
29730;SDS011;16639;51.488;0.152;2024-03-25T04:15:39;18.48;;;5.95;;
29730;SDS011;16639;51.488;0.152;2024-03-25T04:18:06;17.83;;;6.53;;
29730;SDS011;16639;51.488;0.152;2024-03-25T04:20:39;10.68;;;4.80;;
29730;SDS011;16639;51.488;0.152;2024-03-25T04:23:06;15.30;;;5.25;;
29730;SDS011;16639;51.488;0.152;2024-03-25T04:25:36;10.70;;;5.22;;
29730;SDS011;16639;51.488;0.152;2024-03-25T04:28:05;16.42;;;6.28;;
29730;SDS011;16639;51.488;0.152;2024-03-25T04:30:32;11.20;;;4.90;;
29730;SDS011;16639;51.488;0.152;2024-03-25T04:32:59;17.80;;;5.82;;
29730;SDS011;16639;51.488;0.152;2024-03-25T04:35:26;12.25;;;5.50;;
29730;SDS011;16639;51.488;0.152;2024-03-25T04:37:53;17.83;;;5.28;;
29730;SDS011;16639;51.488;0.152;2024-03-25T04:40:21;13.02;;;5.25;;
29730;SDS011;16639;51.488;0.152;2024-03-25T04:42:47;11.55;;;6.30;;
29730;SDS011;16639;51.488;0.152;2024-03-25T04:45:14;11.75;;;4.72;;
29730;SDS011;16639;51.488;0.152;2024-03-25T04:47:41;11.40;;;5.57;;
29730;SDS011;16639;51.488;0.152;2024-03-25T04:50:07;15.90;;;5.43;;
29730;SDS011;16639;51.488;0.152;2024-03-25T04:52:34;10.63;;;4.97;;
29730;SDS011;16639;51.488;0.152;2024-03-25T04:55:01;13.40;;;6.00;;
29730;SDS011;16639;51.488;0.152;2024-03-25T04:57:27;11.45;;;5.40;;
29730;SDS011;16639;51.488;0.152;2024-03-25T04:59:54;20.80;;;6.32;;
29730;SDS011;16639;51.488;0.152;2024-03-25T05:02:20;15.20;;;5.40;;
29730;SDS011;16639;51.488;0.152;2024-03-25T05:04:46;19.55;;;5.47;;
29730;SDS011;16639;51.488;0.152;2024-03-25T05:07:12;13.27;;;5.55;;
29730;SDS011;16639;51.488;0.152;2024-03-25T05:09:40;18.80;;;5.32;;
29730;SDS011;16639;51.488;0.152;2024-03-25T05:12:06;20.20;;;6.60;;
29730;SDS011;16639;51.488;0.152;2024-03-25T05:14:33;11.13;;;5.35;;
29730;SDS011;16639;51.488;0.152;2024-03-25T05:16:59;19.27;;;6.13;;
29730;SDS011;16639;51.488;0.152;2024-03-25T05:19:26;12.65;;;5.07;;
29730;SDS011;16639;51.488;0.152;2024-03-25T05:21:53;16.17;;;6.10;;
29730;SDS011;16639;51.488;0.152;2024-03-25T05:24:19;15.93;;;5.60;;
29730;SDS011;16639;51.488;0.152;2024-03-25T05:26:45;16.38;;;5.93;;
29730;SDS011;16639;51.488;0.152;2024-03-25T05:29:12;16.33;;;6.28;;
29730;SDS011;16639;51.488;0.152;2024-03-25T05:31:38;17.65;;;6.15;;
29730;SDS011;16639;51.488;0.152;2024-03-25T05:34:21;14.07;;;6.18;;
29730;SDS011;16639;51.488;0.152;2024-03-25T05:36:47;20.65;;;6.55;;
29730;SDS011;16639;51.488;0.152;2024-03-25T05:39:14;14.68;;;5.72;;
29730;SDS011;16639;51.488;0.152;2024-03-25T05:41:40;17.35;;;6.32;;
29730;SDS011;16639;51.488;0.152;2024-03-25T05:44:06;11.00;;;5.78;;
29730;SDS011;16639;51.488;0.152;2024-03-25T05:46:33;22.55;;;6.95;;
29730;SDS011;16639;51.488;0.152;2024-03-25T05:49:02;20.63;;;5.97;;
29730;SDS011;16639;51.488;0.152;2024-03-25T05:51:30;26.55;;;6.45;;
29730;SDS011;16639;51.488;0.152;2024-03-25T05:53:56;19.42;;;6.70;;
29730;SDS011;16639;51.488;0.152;2024-03-25T05:56:22;15.73;;;5.70;;
29730;SDS011;16639;51.488;0.152;2024-03-25T05:58:50;15.98;;;5.40;;
29730;SDS011;16639;51.488;0.152;2024-03-25T06:01:16;16.30;;;6.00;;
29730;SDS011;16639;51.488;0.152;2024-03-25T06:03:43;13.45;;;6.43;;
29730;SDS011;16639;51.488;0.152;2024-03-25T06:06:09;19.83;;;5.63;;
29730;SDS011;16639;51.488;0.152;2024-03-25T06:08:36;13.50;;;5.55;;
29730;SDS011;16639;51.488;0.152;2024-03-25T06:11:02;13.07;;;5.43;;
29730;SDS011;16639;51.488;0.152;2024-03-25T06:13:29;17.40;;;6.45;;
29730;SDS011;16639;51.488;0.152;2024-03-25T06:15:56;17.35;;;6.07;;
29730;SDS011;16639;51.488;0.152;2024-03-25T06:18:22;24.95;;;6.05;;
29730;SDS011;16639;51.488;0.152;2024-03-25T06:20:48;15.02;;;5.45;;
29730;SDS011;16639;51.488;0.152;2024-03-25T06:23:22;13.57;;;6.03;;
29730;SDS011;16639;51.488;0.152;2024-03-25T06:25:49;15.98;;;7.22;;
29730;SDS011;16639;51.488;0.152;2024-03-25T06:28:17;13.25;;;6.05;;
29730;SDS011;16639;51.488;0.152;2024-03-25T06:30:44;16.63;;;5.97;;
29730;SDS011;16639;51.488;0.152;2024-03-25T06:33:30;21.98;;;5.93;;
29730;SDS011;16639;51.488;0.152;2024-03-25T06:36:16;16.48;;;5.68;;
29730;SDS011;16639;51.488;0.152;2024-03-25T06:38:43;17.52;;;5.93;;
29730;SDS011;16639;51.488;0.152;2024-03-25T06:41:09;17.52;;;6.05;;
29730;SDS011;16639;51.488;0.152;2024-03-25T06:43:36;13.18;;;5.03;;
29730;SDS011;16639;51.488;0.152;2024-03-25T06:46:04;17.38;;;6.57;;
29730;SDS011;16639;51.488;0.152;2024-03-25T06:48:33;20.40;;;6.65;;
29730;SDS011;16639;51.488;0.152;2024-03-25T06:51:03;17.85;;;6.75;;
29730;SDS011;16639;51.488;0.152;2024-03-25T06:53:29;14.63;;;5.82;;
29730;SDS011;16639;51.488;0.152;2024-03-25T06:55:57;22.17;;;6.00;;
29730;SDS011;16639;51.488;0.152;2024-03-25T06:58:25;12.20;;;5.45;;
29730;SDS011;16639;51.488;0.152;2024-03-25T07:00:52;25.10;;;7.93;;
29730;SDS011;16639;51.488;0.152;2024-03-25T07:03:20;14.30;;;5.88;;
29730;SDS011;16639;51.488;0.152;2024-03-25T07:05:48;22.17;;;6.35;;
29730;SDS011;16639;51.488;0.152;2024-03-25T07:08:15;13.60;;;6.25;;
29730;SDS011;16639;51.488;0.152;2024-03-25T07:10:42;21.33;;;7.10;;
29730;SDS011;16639;51.488;0.152;2024-03-25T07:13:08;17.42;;;5.63;;
29730;SDS011;16639;51.488;0.152;2024-03-25T07:15:34;16.15;;;6.13;;
29730;SDS011;16639;51.488;0.152;2024-03-25T07:18:01;17.05;;;6.18;;
29730;SDS011;16639;51.488;0.152;2024-03-25T07:20:27;23.27;;;6.03;;
29730;SDS011;16639;51.488;0.152;2024-03-25T07:22:54;14.98;;;5.65;;
29730;SDS011;16639;51.488;0.152;2024-03-25T07:25:23;16.45;;;4.80;;
29730;SDS011;16639;51.488;0.152;2024-03-25T07:27:50;15.18;;;5.15;;
29730;SDS011;16639;51.488;0.152;2024-03-25T07:30:16;15.63;;;5.05;;
29730;SDS011;16639;51.488;0.152;2024-03-25T07:32:43;11.48;;;5.07;;
29730;SDS011;16639;51.488;0.152;2024-03-25T07:35:12;16.35;;;5.25;;
29730;SDS011;16639;51.488;0.152;2024-03-25T07:37:38;18.52;;;4.95;;
29730;SDS011;16639;51.488;0.152;2024-03-25T07:40:04;21.02;;;5.38;;
29730;SDS011;16639;51.488;0.152;2024-03-25T07:42:31;15.60;;;4.68;;
29730;SDS011;16639;51.488;0.152;2024-03-25T07:44:58;13.18;;;4.35;;
29730;SDS011;16639;51.488;0.152;2024-03-25T07:47:24;13.60;;;5.10;;
29730;SDS011;16639;51.488;0.152;2024-03-25T07:49:50;24.83;;;5.57;;
29730;SDS011;16639;51.488;0.152;2024-03-25T07:52:16;22.60;;;4.50;;
29730;SDS011;16639;51.488;0.152;2024-03-25T07:54:43;17.95;;;4.30;;
29730;SDS011;16639;51.488;0.152;2024-03-25T07:57:09;29.50;;;5.75;;
29730;SDS011;16639;51.488;0.152;2024-03-25T07:59:35;25.80;;;5.15;;
29730;SDS011;16639;51.488;0.152;2024-03-25T08:02:02;17.95;;;4.55;;
29730;SDS011;16639;51.488;0.152;2024-03-25T08:04:28;8.85;;;4.07;;
29730;SDS011;16639;51.488;0.152;2024-03-25T08:06:55;14.02;;;4.03;;
29730;SDS011;16639;51.488;0.152;2024-03-25T08:09:21;16.75;;;3.80;;
29730;SDS011;16639;51.488;0.152;2024-03-25T08:11:47;19.63;;;4.35;;
29730;SDS011;16639;51.488;0.152;2024-03-25T08:14:13;16.20;;;4.78;;
29730;SDS011;16639;51.488;0.152;2024-03-25T08:16:40;11.70;;;3.85;;
29730;SDS011;16639;51.488;0.152;2024-03-25T08:19:06;18.55;;;5.10;;
29730;SDS011;16639;51.488;0.152;2024-03-25T08:21:32;17.33;;;3.97;;
29730;SDS011;16639;51.488;0.152;2024-03-25T08:23:59;13.48;;;5.60;;
29730;SDS011;16639;51.488;0.152;2024-03-25T08:26:25;20.25;;;5.25;;
29730;SDS011;16639;51.488;0.152;2024-03-25T08:28:51;28.10;;;5.68;;
29730;SDS011;16639;51.488;0.152;2024-03-25T08:31:18;21.38;;;5.18;;
29730;SDS011;16639;51.488;0.152;2024-03-25T08:33:44;25.25;;;5.45;;
29730;SDS011;16639;51.488;0.152;2024-03-25T08:36:10;18.05;;;4.68;;
29730;SDS011;16639;51.488;0.152;2024-03-25T08:38:36;19.75;;;4.25;;
29730;SDS011;16639;51.488;0.152;2024-03-25T08:41:03;18.60;;;3.95;;
29730;SDS011;16639;51.488;0.152;2024-03-25T08:43:29;8.73;;;3.30;;
29730;SDS011;16639;51.488;0.152;2024-03-25T08:45:56;22.85;;;5.43;;
29730;SDS011;16639;51.488;0.152;2024-03-25T08:48:23;13.57;;;5.28;;
29730;SDS011;16639;51.488;0.152;2024-03-25T08:50:49;15.05;;;3.85;;
29730;SDS011;16639;51.488;0.152;2024-03-25T08:53:16;25.05;;;5.60;;
29730;SDS011;16639;51.488;0.152;2024-03-25T08:55:45;16.65;;;3.75;;
29730;SDS011;16639;51.488;0.152;2024-03-25T08:58:12;15.00;;;4.30;;
29730;SDS011;16639;51.488;0.152;2024-03-25T09:00:39;25.83;;;5.25;;
29730;SDS011;16639;51.488;0.152;2024-03-25T09:03:06;23.70;;;5.20;;
29730;SDS011;16639;51.488;0.152;2024-03-25T09:05:32;16.30;;;5.00;;
29730;SDS011;16639;51.488;0.152;2024-03-25T09:07:59;15.93;;;5.38;;
29730;SDS011;16639;51.488;0.152;2024-03-25T09:10:27;13.57;;;3.80;;
29730;SDS011;16639;51.488;0.152;2024-03-25T09:13:12;9.57;;;3.60;;
29730;SDS011;16639;51.488;0.152;2024-03-25T09:15:39;13.52;;;4.20;;
29730;SDS011;16639;51.488;0.152;2024-03-25T09:18:05;20.67;;;6.38;;
29730;SDS011;16639;51.488;0.152;2024-03-25T09:20:31;10.95;;;3.25;;
29730;SDS011;16639;51.488;0.152;2024-03-25T09:22:58;17.75;;;3.45;;
29730;SDS011;16639;51.488;0.152;2024-03-25T09:25:24;13.18;;;3.13;;
29730;SDS011;16639;51.488;0.152;2024-03-25T09:27:50;12.23;;;3.70;;
29730;SDS011;16639;51.488;0.152;2024-03-25T09:30:17;12.85;;;3.50;;
29730;SDS011;16639;51.488;0.152;2024-03-25T09:32:45;11.63;;;4.15;;
29730;SDS011;16639;51.488;0.152;2024-03-25T09:35:11;14.93;;;3.67;;
29730;SDS011;16639;51.488;0.152;2024-03-25T09:37:38;7.38;;;2.88;;
29730;SDS011;16639;51.488;0.152;2024-03-25T09:40:05;10.10;;;3.55;;
29730;SDS011;16639;51.488;0.152;2024-03-25T09:42:42;8.38;;;3.30;;
29730;SDS011;16639;51.488;0.152;2024-03-25T09:45:18;6.78;;;3.53;;
29730;SDS011;16639;51.488;0.152;2024-03-25T09:47:45;7.90;;;2.95;;
29730;SDS011;16639;51.488;0.152;2024-03-25T09:50:15;11.48;;;4.13;;
29730;SDS011;16639;51.488;0.152;2024-03-25T09:52:45;11.98;;;3.72;;
29730;SDS011;16639;51.488;0.152;2024-03-25T09:55:12;16.55;;;4.05;;
29730;SDS011;16639;51.488;0.152;2024-03-25T09:57:39;15.98;;;3.10;;
29730;SDS011;16639;51.488;0.152;2024-03-25T10:00:10;11.43;;;3.38;;
29730;SDS011;16639;51.488;0.152;2024-03-25T10:02:38;8.23;;;3.00;;
29730;SDS011;16639;51.488;0.152;2024-03-25T10:05:05;7.03;;;2.63;;
29730;SDS011;16639;51.488;0.152;2024-03-25T10:07:32;8.05;;;3.00;;
29730;SDS011;16639;51.488;0.152;2024-03-25T10:10:06;15.77;;;3.78;;
29730;SDS011;16639;51.488;0.152;2024-03-25T10:12:35;10.13;;;2.80;;
29730;SDS011;16639;51.488;0.152;2024-03-25T10:15:02;12.77;;;3.58;;
29730;SDS011;16639;51.488;0.152;2024-03-25T10:17:30;16.05;;;3.90;;
29730;SDS011;16639;51.488;0.152;2024-03-25T10:19:57;16.70;;;3.35;;
29730;SDS011;16639;51.488;0.152;2024-03-25T10:22:23;14.52;;;4.25;;
29730;SDS011;16639;51.488;0.152;2024-03-25T10:24:49;10.68;;;3.78;;
29730;SDS011;16639;51.488;0.152;2024-03-25T10:27:20;12.48;;;3.88;;
29730;SDS011;16639;51.488;0.152;2024-03-25T10:29:54;7.32;;;3.33;;
29730;SDS011;16639;51.488;0.152;2024-03-25T10:32:23;14.55;;;3.42;;
29730;SDS011;16639;51.488;0.152;2024-03-25T10:34:50;9.05;;;3.30;;
29730;SDS011;16639;51.488;0.152;2024-03-25T10:37:17;8.70;;;2.90;;
29730;SDS011;16639;51.488;0.152;2024-03-25T10:39:49;22.95;;;3.90;;
29730;SDS011;16639;51.488;0.152;2024-03-25T10:42:18;9.57;;;3.30;;
29730;SDS011;16639;51.488;0.152;2024-03-25T10:44:45;17.58;;;3.80;;
29730;SDS011;16639;51.488;0.152;2024-03-25T10:47:17;5.80;;;3.25;;
29730;SDS011;16639;51.488;0.152;2024-03-25T10:49:49;9.10;;;2.63;;
29730;SDS011;16639;51.488;0.152;2024-03-25T10:52:21;15.68;;;3.60;;
29730;SDS011;16639;51.488;0.152;2024-03-25T10:54:49;8.05;;;3.20;;
29730;SDS011;16639;51.488;0.152;2024-03-25T10:57:16;12.60;;;3.80;;
29730;SDS011;16639;51.488;0.152;2024-03-25T10:59:44;10.60;;;3.08;;
29730;SDS011;16639;51.488;0.152;2024-03-25T11:02:11;12.18;;;3.88;;
29730;SDS011;16639;51.488;0.152;2024-03-25T11:04:38;21.20;;;4.70;;
29730;SDS011;16639;51.488;0.152;2024-03-25T11:07:13;11.77;;;3.50;;
29730;SDS011;16639;51.488;0.152;2024-03-25T11:09:40;15.40;;;3.75;;
29730;SDS011;16639;51.488;0.152;2024-03-25T11:12:11;6.47;;;3.60;;
29730;SDS011;16639;51.488;0.152;2024-03-25T11:14:38;11.70;;;4.22;;
29730;SDS011;16639;51.488;0.152;2024-03-25T11:17:15;11.43;;;3.58;;
29730;SDS011;16639;51.488;0.152;2024-03-25T11:19:41;11.57;;;4.38;;
29730;SDS011;16639;51.488;0.152;2024-03-25T11:22:08;13.27;;;4.03;;
29730;SDS011;16639;51.488;0.152;2024-03-25T11:24:36;16.73;;;3.97;;
29730;SDS011;16639;51.488;0.152;2024-03-25T11:27:06;13.88;;;3.78;;
29730;SDS011;16639;51.488;0.152;2024-03-25T11:29:33;19.30;;;5.47;;
29730;SDS011;16639;51.488;0.152;2024-03-25T11:32:04;15.93;;;4.90;;
29730;SDS011;16639;51.488;0.152;2024-03-25T11:34:31;17.42;;;5.35;;
29730;SDS011;16639;51.488;0.152;2024-03-25T11:36:58;9.82;;;3.85;;
29730;SDS011;16639;51.488;0.152;2024-03-25T11:39:24;16.00;;;3.90;;
29730;SDS011;16639;51.488;0.152;2024-03-25T11:41:54;17.23;;;4.45;;
29730;SDS011;16639;51.488;0.152;2024-03-25T11:44:21;19.50;;;4.88;;
29730;SDS011;16639;51.488;0.152;2024-03-25T11:46:51;15.35;;;4.60;;
29730;SDS011;16639;51.488;0.152;2024-03-25T11:49:20;15.50;;;4.75;;
29730;SDS011;16639;51.488;0.152;2024-03-25T11:51:47;13.02;;;3.97;;
29730;SDS011;16639;51.488;0.152;2024-03-25T11:54:13;17.58;;;4.90;;
29730;SDS011;16639;51.488;0.152;2024-03-25T11:56:40;11.45;;;4.10;;
29730;SDS011;16639;51.488;0.152;2024-03-25T11:59:09;16.73;;;4.15;;
29730;SDS011;16639;51.488;0.152;2024-03-25T12:01:37;14.52;;;3.83;;
29730;SDS011;16639;51.488;0.152;2024-03-25T12:04:10;10.70;;;3.47;;
29730;SDS011;16639;51.488;0.152;2024-03-25T12:06:37;14.68;;;3.35;;
29730;SDS011;16639;51.488;0.152;2024-03-25T12:09:03;9.32;;;3.15;;
29730;SDS011;16639;51.488;0.152;2024-03-25T12:11:48;17.70;;;4.63;;
29730;SDS011;16639;51.488;0.152;2024-03-25T12:14:14;18.30;;;4.18;;
29730;SDS011;16639;51.488;0.152;2024-03-25T12:16:42;16.48;;;4.13;;
29730;SDS011;16639;51.488;0.152;2024-03-25T12:19:08;13.40;;;3.85;;
29730;SDS011;16639;51.488;0.152;2024-03-25T12:21:34;17.48;;;4.40;;
29730;SDS011;16639;51.488;0.152;2024-03-25T12:24:02;12.63;;;3.92;;
29730;SDS011;16639;51.488;0.152;2024-03-25T12:26:30;14.68;;;3.97;;
29730;SDS011;16639;51.488;0.152;2024-03-25T12:28:57;8.18;;;3.17;;
29730;SDS011;16639;51.488;0.152;2024-03-25T12:31:24;17.90;;;3.50;;
29730;SDS011;16639;51.488;0.152;2024-03-25T12:33:50;11.77;;;3.20;;
29730;SDS011;16639;51.488;0.152;2024-03-25T12:36:17;13.82;;;4.07;;
29730;SDS011;16639;51.488;0.152;2024-03-25T12:38:53;15.50;;;4.03;;
29730;SDS011;16639;51.488;0.152;2024-03-25T12:41:21;14.02;;;3.03;;
29730;SDS011;16639;51.488;0.152;2024-03-25T12:43:49;14.55;;;3.38;;
29730;SDS011;16639;51.488;0.152;2024-03-25T12:46:16;10.05;;;3.88;;
29730;SDS011;16639;51.488;0.152;2024-03-25T12:48:43;15.20;;;3.50;;
29730;SDS011;16639;51.488;0.152;2024-03-25T12:51:12;11.13;;;3.70;;
29730;SDS011;16639;51.488;0.152;2024-03-25T12:53:39;13.68;;;4.63;;
29730;SDS011;16639;51.488;0.152;2024-03-25T12:56:06;17.00;;;3.45;;
29730;SDS011;16639;51.488;0.152;2024-03-25T12:58:33;10.82;;;2.80;;
29730;SDS011;16639;51.488;0.152;2024-03-25T13:01:00;15.70;;;4.22;;
29730;SDS011;16639;51.488;0.152;2024-03-25T13:03:27;12.20;;;4.45;;
29730;SDS011;16639;51.488;0.152;2024-03-25T13:05:53;13.70;;;3.88;;
29730;SDS011;16639;51.488;0.152;2024-03-25T13:08:24;11.52;;;3.58;;
29730;SDS011;16639;51.488;0.152;2024-03-25T13:10:50;21.73;;;3.72;;
29730;SDS011;16639;51.488;0.152;2024-03-25T13:13:18;12.00;;;3.30;;
29730;SDS011;16639;51.488;0.152;2024-03-25T13:15:44;15.82;;;3.05;;
29730;SDS011;16639;51.488;0.152;2024-03-25T13:18:11;12.88;;;3.55;;
29730;SDS011;16639;51.488;0.152;2024-03-25T13:20:37;16.52;;;3.78;;
29730;SDS011;16639;51.488;0.152;2024-03-25T13:23:03;10.80;;;3.70;;
29730;SDS011;16639;51.488;0.152;2024-03-25T13:25:29;14.77;;;3.75;;
29730;SDS011;16639;51.488;0.152;2024-03-25T13:27:56;11.07;;;3.72;;
29730;SDS011;16639;51.488;0.152;2024-03-25T13:30:22;10.50;;;3.67;;
29730;SDS011;16639;51.488;0.152;2024-03-25T13:32:50;12.50;;;3.83;;
29730;SDS011;16639;51.488;0.152;2024-03-25T13:35:20;13.23;;;4.18;;
29730;SDS011;16639;51.488;0.152;2024-03-25T13:37:46;11.45;;;3.35;;
29730;SDS011;16639;51.488;0.152;2024-03-25T13:40:13;17.38;;;4.72;;
29730;SDS011;16639;51.488;0.152;2024-03-25T13:42:40;13.45;;;3.65;;
29730;SDS011;16639;51.488;0.152;2024-03-25T13:45:06;19.60;;;5.43;;
29730;SDS011;16639;51.488;0.152;2024-03-25T13:47:33;10.93;;;3.78;;
29730;SDS011;16639;51.488;0.152;2024-03-25T13:50:00;11.18;;;3.30;;
29730;SDS011;16639;51.488;0.152;2024-03-25T13:52:29;11.10;;;3.40;;
29730;SDS011;16639;51.488;0.152;2024-03-25T13:54:57;11.95;;;3.67;;
29730;SDS011;16639;51.488;0.152;2024-03-25T13:57:23;9.80;;;3.17;;
29730;SDS011;16639;51.488;0.152;2024-03-25T13:59:52;15.30;;;3.55;;
29730;SDS011;16639;51.488;0.152;2024-03-25T14:02:19;12.15;;;3.38;;
29730;SDS011;16639;51.488;0.152;2024-03-25T14:04:45;10.52;;;4.18;;
29730;SDS011;16639;51.488;0.152;2024-03-25T14:07:12;17.05;;;4.22;;
29730;SDS011;16639;51.488;0.152;2024-03-25T14:09:38;12.13;;;4.55;;
29730;SDS011;16639;51.488;0.152;2024-03-25T14:12:05;15.02;;;3.90;;
29730;SDS011;16639;51.488;0.152;2024-03-25T14:14:31;16.80;;;3.60;;
29730;SDS011;16639;51.488;0.152;2024-03-25T14:16:58;12.55;;;3.42;;
29730;SDS011;16639;51.488;0.152;2024-03-25T14:19:24;6.45;;;3.15;;
29730;SDS011;16639;51.488;0.152;2024-03-25T14:21:50;15.48;;;4.43;;
29730;SDS011;16639;51.488;0.152;2024-03-25T14:24:17;12.13;;;3.63;;
29730;SDS011;16639;51.488;0.152;2024-03-25T14:26:43;21.17;;;3.58;;
29730;SDS011;16639;51.488;0.152;2024-03-25T14:29:09;8.27;;;2.95;;
29730;SDS011;16639;51.488;0.152;2024-03-25T14:31:36;11.35;;;3.08;;
29730;SDS011;16639;51.488;0.152;2024-03-25T14:34:02;10.75;;;3.08;;
29730;SDS011;16639;51.488;0.152;2024-03-25T14:36:28;14.07;;;3.95;;